Time;durP1;ratioP1;P1;durP2;ratioP2;P2;SDS_P1;SDS_P2;PMS_P1;PMS_P2;Temp;Humidity;BMP_temperature;BMP_pressure;BME280_temperature;BME280_humidity;BME280_pressure;Samples;Min_cycle;Max_cycle;Signal;HPM_P1;HPM_P2
2022/01/09 00:01:29;;;;;;;8.03;5.97;;;0.30;99.90;;;;;;5056330;28;20197;-70
2022/01/09 00:03:55;;;;;;;7.33;5.67;;;0.30;99.90;;;;;;5057502;28;20208;-70
2022/01/09 00:06:21;;;;;;;9.03;5.27;;;0.30;99.90;;;;;;5054725;28;20188;-70
2022/01/09 00:08:46;;;;;;;10.40;6.63;;;0.40;99.90;;;;;;5052808;28;20312;-72
2022/01/09 00:11:13;;;;;;;7.33;5.17;;;0.30;99.90;;;;;;5053845;28;20196;-71
2022/01/09 00:13:39;;;;;;;9.00;6.10;;;0.30;99.90;;;;;;5062427;28;20200;-69
2022/01/09 00:16:05;;;;;;;9.33;6.03;;;0.30;99.90;;;;;;5060378;28;20590;-68
2022/01/09 00:18:31;;;;;;;7.73;5.63;;;0.30;99.90;;;;;;5050809;28;20233;-70
2022/01/09 00:20:56;;;;;;;10.30;5.83;;;0.30;99.90;;;;;;5052752;28;20209;-70
2022/01/09 00:23:22;;;;;;;9.33;5.83;;;0.30;99.90;;;;;;5052877;28;20204;-72
2022/01/09 00:25:47;;;;;;;6.73;4.83;;;0.40;99.90;;;;;;5054297;28;20204;-72
2022/01/09 00:28:13;;;;;;;7.17;5.47;;;0.40;99.90;;;;;;5062174;28;20222;-72
2022/01/09 00:30:38;;;;;;;5.93;5.30;;;0.40;99.90;;;;;;5054450;28;20195;-71
2022/01/09 00:33:05;;;;;;;7.30;5.13;;;0.40;99.90;;;;;;5048106;28;20226;-70
2022/01/09 00:35:31;;;;;;;6.93;4.80;;;0.50;99.90;;;;;;5051447;28;20294;-70
2022/01/09 00:37:57;;;;;;;7.20;4.77;;;0.40;99.90;;;;;;5047725;28;20357;-71
2022/01/09 00:40:22;;;;;;;7.63;4.90;;;0.40;99.90;;;;;;5056220;28;20192;-71
2022/01/09 00:42:48;;;;;;;6.07;4.30;;;0.40;99.90;;;;;;5051481;28;20216;-71
2022/01/09 00:45:14;;;;;;;5.43;4.93;;;0.40;99.90;;;;;;5053660;28;20721;-71
2022/01/09 00:47:41;;;;;;;7.07;4.73;;;0.40;99.90;;;;;;5049580;28;20220;-71
2022/01/09 00:50:07;;;;;;;5.13;4.60;;;0.40;99.90;;;;;;5056078;28;20180;-72
2022/01/09 00:52:33;;;;;;;7.37;5.33;;;0.40;99.90;;;;;;5052581;28;20827;-71
2022/01/09 00:54:58;;;;;;;9.00;5.43;;;0.40;99.90;;;;;;5048222;28;20549;-74
2022/01/09 00:57:24;;;;;;;7.00;5.03;;;0.40;99.90;;;;;;5046226;28;20208;-71
2022/01/09 00:59:49;;;;;;;6.37;4.60;;;0.40;99.90;;;;;;5058216;28;20280;-74
2022/01/09 01:02:15;;;;;;;12.67;5.20;;;0.40;99.90;;;;;;5057519;28;20621;-73
2022/01/09 01:04:41;;;;;;;7.00;4.77;;;0.40;99.90;;;;;;5060345;28;20523;-73
2022/01/09 01:07:06;;;;;;;4.87;4.27;;;0.40;99.90;;;;;;5054031;28;20595;-71
2022/01/09 01:09:32;;;;;;;5.20;4.70;;;0.40;99.90;;;;;;5051818;28;20192;-72
2022/01/09 01:11:59;;;;;;;6.97;5.27;;;0.40;99.90;;;;;;5048985;28;20188;-71
2022/01/09 01:14:26;;;;;;;8.93;5.40;;;0.40;99.90;;;;;;5058736;28;20198;-71
2022/01/09 01:16:52;;;;;;;5.83;4.73;;;0.30;99.90;;;;;;5059029;28;20242;-69
2022/01/09 01:19:18;;;;;;;4.90;4.40;;;0.30;99.90;;;;;;5061157;28;20204;-69
2022/01/09 01:21:43;;;;;;;6.67;5.50;;;0.30;99.90;;;;;;5060970;28;20203;-70
2022/01/09 01:24:09;;;;;;;7.00;4.67;;;0.30;99.90;;;;;;5054961;28;20271;-73
2022/01/09 01:26:34;;;;;;;8.93;4.83;;;0.30;99.90;;;;;;5064485;28;20290;-73
2022/01/09 01:29:00;;;;;;;5.17;4.50;;;0.20;99.90;;;;;;5052653;28;20208;-72
2022/01/09 01:31:25;;;;;;;7.77;5.63;;;0.20;99.90;;;;;;5059920;28;20193;-72
2022/01/09 01:33:51;;;;;;;6.63;5.30;;;0.20;99.90;;;;;;5069290;28;20628;-74
2022/01/09 01:36:17;;;;;;;4.77;4.37;;;0.20;99.90;;;;;;5056289;28;20215;-72
2022/01/09 01:38:42;;;;;;;5.93;5.07;;;0.20;99.90;;;;;;5057761;28;20200;-74
2022/01/09 01:41:08;;;;;;;7.20;5.07;;;0.20;99.90;;;;;;5060985;28;20188;-71
2022/01/09 01:43:33;;;;;;;6.17;5.37;;;0.20;99.90;;;;;;5055053;28;20225;-61
2022/01/09 01:46:02;;;;;;;8.33;5.93;;;0.10;99.90;;;;;;5058003;28;20196;-62
2022/01/09 01:48:29;;;;;;;6.17;5.17;;;0.10;99.90;;;;;;5054720;28;20220;-64
2022/01/09 01:50:55;;;;;;;9.93;6.10;;;0.10;99.90;;;;;;5063182;28;20271;-65
2022/01/09 01:53:21;;;;;;;6.00;5.40;;;0.10;99.90;;;;;;5065340;28;20196;-65
2022/01/09 01:55:53;;;;;;;10.57;5.57;;;0.10;99.90;;;;;;5054773;28;20245;-65
2022/01/09 01:58:19;;;;;;;10.67;5.27;;;0.10;99.90;;;;;;5061757;28;20208;-64
2022/01/09 02:00:44;;;;;;;10.03;6.10;;;0.10;99.90;;;;;;5063950;28;20719;-65
2022/01/09 02:03:10;;;;;;;8.47;5.83;;;0.10;99.90;;;;;;5055655;28;20207;-65
2022/01/09 02:05:37;;;;;;;8.47;5.67;;;0.10;99.90;;;;;;5053312;28;20662;-71
2022/01/09 02:08:04;;;;;;;6.70;5.23;;;0.00;99.90;;;;;;5051079;28;20221;-71
2022/01/09 02:10:30;;;;;;;7.97;5.50;;;0.10;99.90;;;;;;5059795;28;20231;-71
2022/01/09 02:12:57;;;;;;;9.93;5.77;;;0.10;99.90;;;;;;5055044;28;20663;-73
2022/01/09 02:15:44;;;;;;;8.07;6.37;;;0.10;99.90;;;;;;5056363;28;20241;-72
2022/01/09 02:18:12;;;;;;;11.67;6.63;;;0.10;99.90;;;;;;5054474;28;20621;-73
2022/01/09 02:20:38;;;;;;;5.87;5.23;;;0.10;99.90;;;;;;5065671;28;20320;-72
2022/01/09 02:23:06;;;;;;;10.40;5.67;;;0.20;99.90;;;;;;5053956;28;20192;-69
2022/01/09 02:25:33;;;;;;;6.90;5.37;;;0.20;99.90;;;;;;5054247;28;20265;-71
2022/01/09 02:27:59;;;;;;;8.83;6.23;;;0.20;99.90;;;;;;5047982;28;20215;-71
2022/01/09 02:30:24;;;;;;;7.73;5.47;;;0.10;99.90;;;;;;5065823;28;20191;-71
2022/01/09 02:32:50;;;;;;;6.53;5.20;;;0.10;99.90;;;;;;5061337;28;20211;-73
2022/01/09 02:35:15;;;;;;;7.33;6.50;;;0.10;99.90;;;;;;5061642;28;20208;-72
2022/01/09 02:37:41;;;;;;;9.07;6.60;;;0.10;99.90;;;;;;5056676;28;20219;-72
2022/01/09 02:40:07;;;;;;;13.30;6.93;;;0.10;99.90;;;;;;5072112;28;20207;-73
2022/01/09 02:42:33;;;;;;;11.53;7.33;;;0.10;99.90;;;;;;5060293;28;20196;-72
2022/01/09 02:44:59;;;;;;;10.00;6.20;;;0.10;99.90;;;;;;5056066;28;20221;-74
2022/01/09 02:47:29;;;;;;;7.90;5.83;;;0.00;99.90;;;;;;5062506;28;20247;-72
2022/01/09 02:49:56;;;;;;;10.00;5.97;;;0.00;99.90;;;;;;5062395;28;20678;-72
2022/01/09 02:52:33;;;;;;;8.67;5.90;;;0.00;99.90;;;;;;5058664;28;20735;-73
2022/01/09 02:55:12;;;;;;;8.93;6.77;;;0.00;99.90;;;;;;5054713;28;20203;-72
2022/01/09 02:57:42;;;;;;;11.60;6.73;;;0.00;99.90;;;;;;5049798;28;20596;-73
2022/01/09 03:00:11;;;;;;;8.47;6.93;;;0.00;99.90;;;;;;5055028;28;20233;-72
2022/01/09 03:02:37;;;;;;;7.43;5.83;;;0.10;99.90;;;;;;5056143;28;20241;-71
2022/01/09 03:05:03;;;;;;;8.27;5.97;;;0.00;99.90;;;;;;5049681;28;20194;-71
2022/01/09 03:07:28;;;;;;;11.87;6.30;;;0.00;99.90;;;;;;5056106;28;20235;-70
2022/01/09 03:09:54;;;;;;;9.23;6.30;;;0.00;99.90;;;;;;5049416;28;20220;-73
2022/01/09 03:12:20;;;;;;;10.17;7.03;;;0.00;99.90;;;;;;5053986;28;20195;-73
2022/01/09 03:14:46;;;;;;;8.53;5.67;;;0.00;99.90;;;;;;5049669;28;20949;-72
2022/01/09 03:17:11;;;;;;;9.17;7.07;;;0.00;99.90;;;;;;5055690;28;20312;-72
2022/01/09 03:19:37;;;;;;;9.23;6.47;;;0.00;99.90;;;;;;5074239;28;20664;-72
2022/01/09 03:22:03;;;;;;;9.13;6.40;;;0.00;99.90;;;;;;5052681;28;20210;-72
2022/01/09 03:24:28;;;;;;;7.60;6.30;;;0.00;99.90;;;;;;5053550;28;20215;-72
2022/01/09 03:26:54;;;;;;;11.17;6.77;;;0.00;99.90;;;;;;5050678;28;20219;-73
2022/01/09 03:29:19;;;;;;;9.00;6.90;;;0.00;99.90;;;;;;5048743;28;20202;-73
2022/01/09 03:31:45;;;;;;;13.17;6.50;;;0.00;99.90;;;;;;5054575;28;20190;-71
2022/01/09 03:34:10;;;;;;;7.73;5.60;;;0.00;99.90;;;;;;5051102;28;20287;-72
2022/01/09 03:36:36;;;;;;;9.57;5.47;;;0.00;99.90;;;;;;5055829;28;20286;-61
2022/01/09 03:39:01;;;;;;;9.83;6.63;;;0.00;99.90;;;;;;5047584;28;20647;-62
2022/01/09 03:41:27;;;;;;;8.37;5.90;;;0.00;99.90;;;;;;5055097;28;20214;-61
2022/01/09 03:43:52;;;;;;;8.03;5.90;;;0.00;99.90;;;;;;5058809;28;20712;-62
2022/01/09 03:46:18;;;;;;;9.27;6.23;;;0.00;99.90;;;;;;5061831;28;20187;-62
2022/01/09 03:48:43;;;;;;;9.73;6.43;;;0.00;99.90;;;;;;5048817;28;20219;-63
2022/01/09 03:51:10;;;;;;;11.33;6.70;;;0.00;99.90;;;;;;5063861;28;20663;-65
2022/01/09 03:53:36;;;;;;;7.67;5.50;;;0.00;99.90;;;;;;5052929;28;20222;-60
2022/01/09 03:56:02;;;;;;;10.30;5.83;;;0.00;99.90;;;;;;5063920;28;20517;-61
2022/01/09 03:58:28;;;;;;;10.40;6.47;;;0.00;99.90;;;;;;5055566;28;20203;-65
2022/01/09 04:00:53;;;;;;;8.23;6.07;;;0.00;99.90;;;;;;5063430;28;20199;-61
2022/01/09 04:03:19;;;;;;;9.43;5.83;;;-0.10;99.90;;;;;;5057939;28;20209;-60
2022/01/09 04:05:44;;;;;;;9.60;6.33;;;-0.10;99.90;;;;;;5063294;28;20195;-60
2022/01/09 04:08:10;;;;;;;6.77;6.03;;;-0.10;99.90;;;;;;5056932;28;20682;-60
2022/01/09 04:10:41;;;;;;;7.30;5.57;;;-0.10;99.90;;;;;;5062263;28;20198;-60
2022/01/09 04:13:07;;;;;;;6.90;5.23;;;-0.10;99.90;;;;;;5054683;28;20742;-61
2022/01/09 04:15:33;;;;;;;9.77;5.37;;;-0.10;99.90;;;;;;5063619;28;20230;-62
2022/01/09 04:17:59;;;;;;;6.83;5.83;;;-0.10;99.90;;;;;;5052335;28;20213;-62
2022/01/09 04:20:26;;;;;;;7.07;5.20;;;-0.10;99.90;;;;;;5062744;28;20249;-61
2022/01/09 04:22:52;;;;;;;6.57;5.10;;;-0.10;99.90;;;;;;5061882;28;20204;-61
2022/01/09 04:25:18;;;;;;;9.87;6.10;;;-0.10;99.90;;;;;;5062932;28;20191;-62
2022/01/09 04:27:47;;;;;;;9.23;6.30;;;-0.10;99.90;;;;;;5061320;28;20231;-60
2022/01/09 04:30:13;;;;;;;7.63;5.90;;;-0.10;99.90;;;;;;5063806;28;20224;-60
2022/01/09 04:32:39;;;;;;;9.33;5.23;;;-0.10;99.90;;;;;;5062265;28;20763;-61
2022/01/09 04:35:06;;;;;;;7.10;4.97;;;-0.10;99.90;;;;;;5045139;28;20181;-61
2022/01/09 04:37:33;;;;;;;6.97;5.07;;;-0.10;99.90;;;;;;5061145;28;20211;-60
2022/01/09 04:39:59;;;;;;;7.73;5.57;;;-0.10;99.90;;;;;;5047428;28;20194;-61
2022/01/09 04:42:31;;;;;;;8.87;5.20;;;-0.10;99.90;;;;;;5056534;28;20202;-61
2022/01/09 04:44:57;;;;;;;7.03;5.00;;;-0.10;99.90;;;;;;5056869;28;20187;-62
2022/01/09 04:47:22;;;;;;;9.80;5.27;;;-0.10;99.90;;;;;;5058849;28;20270;-61
2022/01/09 04:49:49;;;;;;;5.20;4.70;;;-0.10;99.90;;;;;;5056318;28;20628;-61
2022/01/09 04:52:19;;;;;;;8.47;4.97;;;-0.10;99.90;;;;;;5066210;28;20198;-61
2022/01/09 04:54:44;;;;;;;7.97;5.07;;;-0.10;99.90;;;;;;5052434;28;20193;-61
2022/01/09 04:57:10;;;;;;;6.37;5.20;;;0.00;99.90;;;;;;5057907;28;20198;-60
2022/01/09 04:59:35;;;;;;;7.43;4.43;;;-0.10;99.90;;;;;;5053585;28;20237;-61
2022/01/09 05:02:01;;;;;;;7.43;4.90;;;-0.10;99.90;;;;;;5061723;28;20208;-61
2022/01/09 05:04:27;;;;;;;6.23;4.67;;;-0.10;99.90;;;;;;5058462;28;20279;-61
2022/01/09 05:06:52;;;;;;;5.63;5.03;;;-0.10;99.90;;;;;;5064707;28;20198;-60
2022/01/09 05:09:18;;;;;;;7.20;5.10;;;-0.10;99.90;;;;;;5062775;28;20595;-61
2022/01/09 05:11:43;;;;;;;7.37;4.53;;;0.00;99.90;;;;;;5066512;28;20194;-60
2022/01/09 05:14:09;;;;;;;5.03;4.53;;;0.00;99.90;;;;;;5063294;28;20199;-60
2022/01/09 05:16:34;;;;;;;11.07;5.93;;;0.00;99.90;;;;;;5066360;28;20313;-61
2022/01/09 05:19:06;;;;;;;4.30;3.90;;;0.10;99.90;;;;;;5056616;28;20901;-60
2022/01/09 05:21:32;;;;;;;7.93;4.73;;;0.10;99.90;;;;;;5061918;28;20196;-60
2022/01/09 05:23:57;;;;;;;6.17;4.50;;;0.20;99.90;;;;;;5051889;28;20208;-60
2022/01/09 05:26:23;;;;;;;6.53;4.23;;;0.20;99.90;;;;;;5058435;28;20208;-61
2022/01/09 05:28:49;;;;;;;6.50;4.67;;;0.20;99.90;;;;;;5047921;28;20211;-61
2022/01/09 05:31:14;;;;;;;8.47;4.50;;;0.20;99.90;;;;;;5066528;28;20203;-61
2022/01/09 05:33:40;;;;;;;5.50;4.47;;;0.20;99.90;;;;;;5062602;28;20205;-61
2022/01/09 05:36:05;;;;;;;7.83;4.83;;;0.20;99.90;;;;;;5066493;28;20216;-61
2022/01/09 05:38:32;;;;;;;5.57;4.07;;;0.20;99.90;;;;;;5052018;28;20211;-61
2022/01/09 05:40:58;;;;;;;7.50;3.73;;;0.30;99.90;;;;;;5067595;28;20200;-60
2022/01/09 05:43:24;;;;;;;6.27;4.00;;;0.30;99.90;;;;;;5052075;28;20218;-61
2022/01/09 05:45:50;;;;;;;8.67;4.13;;;0.30;99.90;;;;;;5065617;28;20646;-61
2022/01/09 05:48:16;;;;;;;7.20;4.37;;;0.30;99.90;;;;;;5056549;28;20230;-61
2022/01/09 05:50:43;;;;;;;7.80;4.33;;;0.30;99.90;;;;;;5066918;28;20207;-60
2022/01/09 05:53:08;;;;;;;7.47;4.97;;;0.30;99.90;;;;;;5053849;28;20255;-61
2022/01/09 05:55:34;;;;;;;6.03;3.70;;;0.30;99.90;;;;;;5064780;28;20204;-61
2022/01/09 05:57:59;;;;;;;5.83;4.17;;;0.40;99.90;;;;;;5053733;28;20215;-61
2022/01/09 06:00:25;;;;;;;5.13;4.27;;;0.40;99.90;;;;;;5065756;28;20198;-61
2022/01/09 06:02:50;;;;;;;8.07;4.17;;;0.40;99.90;;;;;;5065294;28;20242;-61
2022/01/09 06:05:16;;;;;;;7.80;4.50;;;0.40;99.90;;;;;;5066620;28;20242;-61
2022/01/09 06:07:43;;;;;;;5.73;4.47;;;0.40;99.90;;;;;;5056990;28;20561;-61
2022/01/09 06:10:09;;;;;;;7.50;4.73;;;0.50;99.90;;;;;;5066565;28;20681;-61
2022/01/09 06:12:35;;;;;;;6.33;3.90;;;0.50;99.90;;;;;;5058489;28;20214;-61
2022/01/09 06:15:02;;;;;;;8.23;4.37;;;0.50;99.90;;;;;;5055919;28;20180;-61
2022/01/09 06:17:27;;;;;;;12.17;4.60;;;0.60;99.90;;;;;;5064467;28;20323;-61
2022/01/09 06:19:52;;;;;;;5.87;4.57;;;0.60;99.90;;;;;;5066389;28;20637;-61
2022/01/09 06:22:18;;;;;;;7.13;4.00;;;0.60;99.90;;;;;;5056133;28;20246;-60
2022/01/09 06:24:50;;;;;;;5.87;3.93;;;0.60;99.90;;;;;;5063569;28;20189;-61
2022/01/09 06:27:16;;;;;;;4.97;3.97;;;0.70;99.90;;;;;;5063956;28;20212;-61
2022/01/09 06:29:42;;;;;;;6.57;3.90;;;0.60;99.90;;;;;;5066369;28;20191;-61
2022/01/09 06:32:08;;;;;;;6.93;3.90;;;0.60;99.90;;;;;;5064621;28;20333;-61
2022/01/09 06:34:33;;;;;;;6.13;3.97;;;0.60;99.90;;;;;;5052926;28;20596;-61
2022/01/09 06:36:59;;;;;;;11.17;4.40;;;0.70;99.90;;;;;;5062592;28;20239;-61
2022/01/09 06:39:24;;;;;;;6.80;3.80;;;0.70;99.90;;;;;;5065887;28;20180;-60
2022/01/09 06:41:50;;;;;;;7.33;4.77;;;0.80;99.90;;;;;;5063463;28;20193;-60
2022/01/09 06:44:16;;;;;;;8.13;4.63;;;0.70;99.90;;;;;;5059170;28;20177;-60
2022/01/09 06:46:42;;;;;;;4.87;4.33;;;0.70;99.90;;;;;;5065246;28;20226;-61
2022/01/09 06:49:07;;;;;;;4.50;3.50;;;0.80;99.90;;;;;;5054978;28;20630;-60
2022/01/09 06:51:33;;;;;;;7.00;4.60;;;0.70;99.90;;;;;;5060171;28;20543;-60
2022/01/09 06:53:58;;;;;;;4.60;3.93;;;0.70;99.90;;;;;;5054273;28;20197;-60
2022/01/09 06:56:24;;;;;;;7.27;4.93;;;0.70;99.90;;;;;;5064749;28;20268;-61
2022/01/09 06:58:49;;;;;;;6.17;4.40;;;0.80;99.90;;;;;;5052617;28;20215;-60
2022/01/09 07:01:15;;;;;;;8.07;3.77;;;0.70;99.90;;;;;;5064679;28;20312;-61
2022/01/09 07:03:40;;;;;;;7.10;4.57;;;0.80;99.90;;;;;;5054855;28;20574;-61
2022/01/09 07:06:06;;;;;;;5.93;5.13;;;0.70;99.90;;;;;;5065341;28;20197;-61
2022/01/09 07:08:33;;;;;;;4.60;3.87;;;0.80;99.90;;;;;;5049301;28;20767;-61
2022/01/09 07:10:59;;;;;;;4.80;4.33;;;0.80;99.90;;;;;;5056218;28;20190;-61
2022/01/09 07:13:25;;;;;;;5.43;4.47;;;0.80;99.90;;;;;;5059301;28;20247;-60
2022/01/09 07:15:51;;;;;;;7.27;4.07;;;0.80;99.90;;;;;;5064304;28;20223;-61
2022/01/09 07:18:16;;;;;;;5.27;3.80;;;0.70;99.90;;;;;;5051113;28;20215;-61
2022/01/09 07:20:42;;;;;;;7.80;4.13;;;0.70;99.90;;;;;;5064163;28;20203;-61
2022/01/09 07:23:07;;;;;;;4.83;4.17;;;0.70;99.90;;;;;;5054466;28;20200;-61
2022/01/09 07:25:33;;;;;;;7.57;4.33;;;0.70;99.90;;;;;;5065260;28;20612;-60
2022/01/09 07:27:59;;;;;;;4.53;3.97;;;0.70;99.90;;;;;;5059977;28;21091;-61
2022/01/09 07:30:26;;;;;;;9.67;4.73;;;0.80;99.90;;;;;;5064574;28;20553;-62
2022/01/09 07:32:52;;;;;;;5.33;4.40;;;0.80;99.90;;;;;;5063243;28;20202;-61
2022/01/09 07:35:17;;;;;;;5.37;3.10;;;0.80;99.90;;;;;;5064758;28;20209;-61
2022/01/09 07:37:43;;;;;;;7.43;4.83;;;0.90;99.90;;;;;;5054918;28;20374;-61
2022/01/09 07:40:09;;;;;;;7.90;5.00;;;0.90;99.90;;;;;;5064399;28;20201;-61
2022/01/09 07:42:34;;;;;;;4.97;4.03;;;0.90;99.90;;;;;;5063140;28;20569;-61
2022/01/09 07:45:00;;;;;;;6.03;4.90;;;0.90;99.90;;;;;;5049377;28;20198;-61
2022/01/09 07:47:26;;;;;;;6.47;4.63;;;0.90;99.90;;;;;;5057614;28;20708;-61
2022/01/09 07:49:51;;;;;;;6.17;4.53;;;0.90;99.90;;;;;;5057192;28;20638;-60
2022/01/09 07:52:17;;;;;;;6.93;4.77;;;0.90;99.90;;;;;;5058450;28;20227;-61
2022/01/09 07:54:42;;;;;;;7.10;5.23;;;0.90;99.90;;;;;;5056015;28;20226;-61
2022/01/09 07:57:08;;;;;;;7.13;5.20;;;1.00;99.90;;;;;;5062777;28;20261;-60
2022/01/09 07:59:33;;;;;;;5.90;4.17;;;1.00;99.90;;;;;;5059308;28;20769;-60
2022/01/09 08:01:59;;;;;;;9.53;5.47;;;1.10;99.90;;;;;;5061959;28;20288;-61
2022/01/09 08:04:24;;;;;;;5.10;4.50;;;1.10;99.90;;;;;;5065116;28;20165;-61
2022/01/09 08:06:50;;;;;;;6.27;4.27;;;1.10;99.90;;;;;;5061670;28;20192;-63
2022/01/09 08:09:15;;;;;;;5.70;4.87;;;1.00;99.90;;;;;;5064846;28;20177;-61
2022/01/09 08:11:41;;;;;;;8.77;5.73;;;1.10;99.90;;;;;;5061676;28;20726;-61
2022/01/09 08:14:06;;;;;;;7.87;5.50;;;1.10;99.90;;;;;;5049414;28;20195;-61
2022/01/09 08:16:32;;;;;;;8.30;5.13;;;1.10;99.90;;;;;;5063448;28;20229;-62
2022/01/09 08:18:57;;;;;;;5.63;5.00;;;1.10;99.90;;;;;;5049795;28;20302;-61
2022/01/09 08:21:23;;;;;;;5.80;4.90;;;1.20;99.90;;;;;;5063320;28;20245;-62
2022/01/09 08:23:50;;;;;;;6.13;4.90;;;1.20;99.90;;;;;;5058306;28;20235;-61
2022/01/09 08:26:16;;;;;;;5.37;4.87;;;1.20;99.90;;;;;;5060462;28;20277;-64
2022/01/09 08:28:44;;;;;;;8.70;5.67;;;1.20;99.90;;;;;;5050798;28;20734;-62
2022/01/09 08:31:11;;;;;;;8.10;5.97;;;1.20;99.90;;;;;;5061632;28;20197;-62
2022/01/09 08:33:36;;;;;;;5.33;4.77;;;1.30;99.90;;;;;;5050069;28;20730;-61
2022/01/09 08:36:02;;;;;;;13.03;6.20;;;1.30;99.90;;;;;;5063196;28;20312;-62
2022/01/09 08:38:27;;;;;;;10.23;6.37;;;1.30;99.90;;;;;;5048083;28;20307;-62
2022/01/09 08:40:52;;;;;;;7.13;5.20;;;1.40;99.90;;;;;;5054311;28;20330;-61
2022/01/09 08:43:18;;;;;;;11.40;5.60;;;1.40;99.90;;;;;;5052332;28;20223;-62
2022/01/09 08:45:44;;;;;;;8.13;4.83;;;1.40;99.90;;;;;;5063886;28;20199;-61
2022/01/09 08:48:09;;;;;;;7.07;5.10;;;1.40;99.90;;;;;;5053467;28;20577;-60
2022/01/09 08:50:35;;;;;;;9.83;6.07;;;1.40;99.90;;;;;;5064062;28;20197;-60
2022/01/09 08:53:00;;;;;;;7.37;5.00;;;1.50;99.90;;;;;;5052067;28;20207;-61
2022/01/09 08:55:26;;;;;;;8.23;5.13;;;1.50;99.90;;;;;;5062704;28;20193;-60
2022/01/09 08:57:51;;;;;;;7.43;5.00;;;1.50;99.90;;;;;;5052401;28;20205;-60
2022/01/09 09:00:18;;;;;;;6.67;5.00;;;1.50;99.90;;;;;;5062941;28;20730;-60
2022/01/09 09:02:44;;;;;;;8.07;5.37;;;1.50;99.90;;;;;;5062004;28;20225;-60
2022/01/09 09:05:10;;;;;;;8.37;5.30;;;1.60;99.90;;;;;;5061164;28;20294;-60
2022/01/09 09:07:35;;;;;;;5.93;4.90;;;1.70;99.90;;;;;;5061087;28;20220;-60
2022/01/09 09:10:04;;;;;;;6.13;4.70;;;1.70;99.90;;;;;;5051187;28;20887;-60
2022/01/09 09:12:31;;;;;;;10.27;5.83;;;1.70;99.90;;;;;;5061290;28;20197;-60
2022/01/09 09:14:58;;;;;;;6.13;5.20;;;1.60;99.90;;;;;;5059455;28;20188;-60
2022/01/09 09:17:23;;;;;;;9.73;5.80;;;1.60;99.90;;;;;;5061066;28;20226;-61
2022/01/09 09:19:49;;;;;;;7.57;5.40;;;1.70;99.90;;;;;;5051700;28;20669;-60
2022/01/09 09:22:15;;;;;;;9.57;5.03;;;1.70;99.90;;;;;;5054732;28;20201;-60
2022/01/09 09:24:40;;;;;;;7.60;5.20;;;1.80;99.90;;;;;;5051096;28;20523;-60
2022/01/09 09:27:06;;;;;;;7.20;5.57;;;1.80;99.90;;;;;;5061464;28;20219;-60
2022/01/09 09:29:32;;;;;;;9.07;5.07;;;1.70;99.90;;;;;;5063806;28;20224;-61
2022/01/09 09:31:58;;;;;;;6.13;4.13;;;1.70;99.90;;;;;;5061352;28;20210;-61
2022/01/09 09:34:23;;;;;;;9.63;5.60;;;1.70;99.90;;;;;;5054494;28;20931;-62
2022/01/09 09:36:50;;;;;;;8.10;4.97;;;1.70;99.90;;;;;;5063969;28;20206;-62
2022/01/09 09:39:15;;;;;;;10.47;5.83;;;1.80;99.90;;;;;;5047376;28;20185;-62
2022/01/09 09:41:41;;;;;;;7.70;6.17;;;2.00;99.90;;;;;;5055634;28;20687;-62
2022/01/09 09:44:09;;;;;;;7.17;4.50;;;2.10;99.90;;;;;;5051156;28;20287;-61
2022/01/09 09:46:36;;;;;;;5.57;4.40;;;2.20;99.90;;;;;;5066795;28;20231;-61
2022/01/09 09:49:02;;;;;;;7.97;4.80;;;2.20;99.90;;;;;;5049357;28;20532;-61
2022/01/09 09:51:29;;;;;;;8.00;5.77;;;2.20;99.90;;;;;;5062436;28;20202;-60
2022/01/09 09:53:55;;;;;;;7.63;5.67;;;2.20;99.90;;;;;;5062767;28;20280;-61
2022/01/09 09:56:21;;;;;;;5.87;4.63;;;2.20;99.90;;;;;;5062624;28;20252;-61
2022/01/09 09:58:50;;;;;;;7.17;4.83;;;2.20;99.90;;;;;;5064268;28;20259;-61
2022/01/09 10:01:23;;;;;;;6.00;4.43;;;2.20;99.90;;;;;;5066469;28;20785;-61
2022/01/09 10:03:57;;;;;;;9.27;4.87;;;2.20;99.90;;;;;;5064659;28;20591;-61
2022/01/09 10:06:42;;;;;;;8.57;4.97;;;2.20;99.90;;;;;;5066092;28;20204;-61
2022/01/09 10:09:19;;;;;;;7.93;5.27;;;2.20;99.90;;;;;;5053155;28;20225;-61
2022/01/09 10:11:52;;;;;;;6.90;4.53;;;2.20;99.90;;;;;;5057863;28;20197;-61
2022/01/09 10:14:29;;;;;;;6.97;4.90;;;2.30;99.90;;;;;;5045969;28;20197;-63
2022/01/09 10:17:13;;;;;;;5.90;4.43;;;2.40;99.90;;;;;;5066121;28;20761;-63
2022/01/09 10:19:52;;;;;;;7.73;5.00;;;2.40;99.90;;;;;;5053020;28;20205;-60
2022/01/09 10:22:24;;;;;;;5.07;4.57;;;2.50;99.90;;;;;;5066241;28;20990;-60
2022/01/09 10:24:50;;;;;;;8.70;4.40;;;2.50;99.90;;;;;;5052851;28;20270;-59
2022/01/09 10:27:31;;;;;;;5.93;4.10;;;2.60;99.90;;;;;;5066619;28;20212;-61
2022/01/09 10:29:57;;;;;;;7.37;4.23;;;2.60;99.90;;;;;;5051279;28;20186;-61
2022/01/09 10:32:28;;;;;;;6.03;4.57;;;2.60;99.90;;;;;;5066415;28;20186;-61
2022/01/09 10:35:06;;;;;;;5.50;4.37;;;2.60;99.90;;;;;;5053048;28;20205;-62
2022/01/09 10:37:32;;;;;;;6.00;4.47;;;2.70;99.90;;;;;;5064250;28;20281;-61
2022/01/09 10:40:00;;;;;;;5.80;4.20;;;2.70;99.90;;;;;;5054337;28;20390;-61
2022/01/09 10:42:26;;;;;;;6.00;4.53;;;2.70;99.90;;;;;;5060133;28;20198;-61
2022/01/09 10:44:51;;;;;;;8.50;4.63;;;2.80;99.90;;;;;;5050812;28;20210;-62
2022/01/09 10:47:17;;;;;;;5.03;4.57;;;2.90;99.90;;;;;;5061757;28;20221;-62
2022/01/09 10:49:49;;;;;;;5.27;3.87;;;2.90;99.90;;;;;;5050042;28;20199;-62
2022/01/09 10:52:22;;;;;;;5.37;4.37;;;3.00;99.90;;;;;;5046223;28;20219;-62
2022/01/09 10:54:50;;;;;;;5.27;4.50;;;3.00;99.90;;;;;;5051248;28;20202;-60
2022/01/09 10:57:28;;;;;;;6.37;4.50;;;3.00;99.90;;;;;;5062006;28;20305;-61
2022/01/09 11:00:02;;;;;;;5.70;3.80;;;3.10;99.90;;;;;;5049618;28;20202;-60
2022/01/09 11:02:28;;;;;;;6.10;4.20;;;3.10;99.90;;;;;;5057439;28;20215;-62
2022/01/09 11:04:53;;;;;;;6.00;4.87;;;3.10;99.90;;;;;;5051024;28;20663;-62
2022/01/09 11:07:20;;;;;;;7.57;4.50;;;3.10;99.90;;;;;;5063581;28;20550;-61
2022/01/09 11:09:48;;;;;;;8.20;4.27;;;3.20;99.90;;;;;;5059701;28;20198;-62
2022/01/09 11:12:17;;;;;;;8.10;4.87;;;3.10;99.90;;;;;;5064666;28;21017;-61
2022/01/09 11:14:43;;;;;;;5.47;4.30;;;3.20;99.90;;;;;;5045400;28;20206;-62
2022/01/09 11:17:10;;;;;;;5.03;4.10;;;3.20;99.90;;;;;;5064360;28;20232;-61
2022/01/09 11:19:37;;;;;;;7.67;3.37;;;3.30;99.90;;;;;;5051188;28;20229;-61
2022/01/09 11:22:06;;;;;;;5.97;4.03;;;3.30;99.90;;;;;;5064957;28;20285;-60
2022/01/09 11:24:51;;;;;;;8.93;4.50;;;3.40;99.90;;;;;;5046472;28;20204;-60
2022/01/09 11:27:16;;;;;;;5.63;4.60;;;3.40;99.90;;;;;;5052543;28;20678;-61
2022/01/09 11:30:20;;;;;;;5.63;5.00;;;3.40;99.90;;;;;;5047386;28;20195;-60
2022/01/09 11:33:19;;;;;;;5.50;4.23;;;3.40;99.90;;;;;;5056130;28;20193;-60
2022/01/09 11:36:14;;;;;;;7.30;4.37;;;3.50;99.90;;;;;;5060294;28;20209;-61
2022/01/09 11:38:58;;;;;;;7.27;4.50;;;3.50;99.90;;;;;;5053236;28;20308;-60
2022/01/09 11:41:30;;;;;;;7.17;5.13;;;3.50;99.90;;;;;;5061358;28;20658;-60
2022/01/09 11:44:09;;;;;;;5.93;4.67;;;3.60;99.90;;;;;;5050746;28;20265;-61
2022/01/09 11:47:04;;;;;;;6.60;4.30;;;3.60;99.90;;;;;;5064025;28;20209;-60
2022/01/09 11:49:54;;;;;;;4.80;4.03;;;3.60;99.90;;;;;;5052759;28;20290;-64
2022/01/09 11:52:20;;;;;;;5.43;4.57;;;3.60;99.90;;;;;;5046420;28;20213;-71
2022/01/09 11:54:59;;;;;;;5.47;4.43;;;3.60;99.90;;;;;;5043795;28;20726;-71
2022/01/09 11:58:02;;;;;;;6.37;3.90;;;3.60;99.90;;;;;;5043739;28;20182;-72
2022/01/09 12:00:31;;;;;;;4.43;3.87;;;3.70;99.90;;;;;;5041842;28;20289;-73
2022/01/09 12:02:57;;;;;;;4.77;4.00;;;3.70;99.90;;;;;;5058608;28;20186;-68
2022/01/09 12:05:23;;;;;;;7.20;4.10;;;3.80;99.90;;;;;;5049795;28;20209;-68
2022/01/09 12:07:53;;;;;;;5.07;4.00;;;3.90;99.90;;;;;;5049769;28;20364;-68
2022/01/09 12:10:30;;;;;;;9.90;4.93;;;3.80;99.90;;;;;;5055131;28;20183;-69
2022/01/09 12:12:57;;;;;;;7.67;4.53;;;4.00;99.90;;;;;;5051211;28;20191;-70
2022/01/09 12:15:42;;;;;;;5.83;4.43;;;4.00;99.90;;;;;;5049270;28;20178;-68
2022/01/09 12:18:44;;;;;;;5.50;4.50;;;4.10;99.90;;;;;;5047228;28;20665;-68
2022/01/09 12:21:31;;;;;;;6.13;4.33;;;4.10;99.90;;;;;;5056664;28;20293;-65
2022/01/09 12:24:42;;;;;;;4.33;3.60;;;4.20;99.90;;;;;;5050460;28;20206;-65
2022/01/09 12:27:44;;;;;;;4.20;3.80;;;4.10;99.90;;;;;;5044075;28;20235;-69
2022/01/09 12:30:32;;;;;;;5.07;4.40;;;4.00;99.90;;;;;;5054407;28;20268;-70
2022/01/09 12:32:59;;;;;;;7.03;4.77;;;4.00;99.90;;;;;;5055379;28;20210;-67
2022/01/09 12:35:25;;;;;;;5.73;4.43;;;4.00;99.90;;;;;;5054043;28;20769;-70
2022/01/09 12:37:53;;;;;;;5.00;4.33;;;3.90;99.90;;;;;;5053889;28;20356;-67
2022/01/09 12:40:20;;;;;;;5.47;4.03;;;4.00;99.90;;;;;;5050487;28;20186;-67
2022/01/09 12:42:50;;;;;;;4.83;4.03;;;3.90;99.90;;;;;;5050388;28;20190;-67
2022/01/09 12:45:27;;;;;;;6.10;4.50;;;3.90;99.90;;;;;;5054844;28;20771;-68
2022/01/09 12:47:57;;;;;;;7.47;4.93;;;4.00;99.90;;;;;;5058716;28;20293;-68
2022/01/09 12:50:31;;;;;;;6.57;3.83;;;4.10;99.90;;;;;;5047423;28;20185;-68
2022/01/09 12:53:15;;;;;;;8.00;4.37;;;4.00;99.90;;;;;;5049986;28;20248;-67
2022/01/09 12:55:56;;;;;;;5.00;3.73;;;4.00;99.90;;;;;;5053843;28;20182;-68
2022/01/09 12:58:27;;;;;;;5.63;4.13;;;3.90;99.90;;;;;;5054122;28;20217;-69
2022/01/09 13:00:53;;;;;;;5.13;4.00;;;3.90;99.90;;;;;;5051574;28;20212;-68